sensor_id;sensor_type;location;lat;lon;timestamp;pressure;altitude;pressure_sealevel;temperature;humidity
61478;BME280;47345;52.334;10.392;2023-02-14T00:01:21;102982.02;;;2.76;81.54
61478;BME280;47345;52.334;10.392;2023-02-14T00:03:53;102981.73;;;2.75;81.89
61478;BME280;47345;52.334;10.392;2023-02-14T00:06:31;102978.97;;;2.73;82.51
61478;BME280;47345;52.334;10.392;2023-02-14T00:09:05;102983.11;;;2.73;82.60
61478;BME280;47345;52.334;10.392;2023-02-14T00:11:38;102978.52;;;2.71;82.63
61478;BME280;47345;52.334;10.392;2023-02-14T00:14:11;102978.20;;;2.71;82.71
61478;BME280;47345;52.334;10.392;2023-02-14T00:17:02;102969.63;;;2.70;82.26
61478;BME280;47345;52.334;10.392;2023-02-14T00:19:35;102968.23;;;2.69;81.61
61478;BME280;47345;52.334;10.392;2023-02-14T00:22:08;102967.76;;;2.65;81.68
61478;BME280;47345;52.334;10.392;2023-02-14T00:24:42;102967.82;;;2.61;81.32
61478;BME280;47345;52.334;10.392;2023-02-14T00:27:15;102970.12;;;2.59;81.64
61478;BME280;47345;52.334;10.392;2023-02-14T00:29:48;102970.20;;;2.58;81.78
61478;BME280;47345;52.334;10.392;2023-02-14T00:32:20;102967.44;;;2.56;81.49
61478;BME280;47345;52.334;10.392;2023-02-14T00:34:54;102972.95;;;2.55;81.28
61478;BME280;47345;52.334;10.392;2023-02-14T00:37:43;102976.55;;;2.52;81.39
61478;BME280;47345;52.334;10.392;2023-02-14T00:40:31;102977.14;;;2.48;81.24
61478;BME280;47345;52.334;10.392;2023-02-14T00:43:03;102975.45;;;2.46;81.17
61478;BME280;47345;52.334;10.392;2023-02-14T00:45:35;102978.62;;;2.44;81.15
61478;BME280;47345;52.334;10.392;2023-02-14T00:48:09;102976.84;;;2.42;81.03
61478;BME280;47345;52.334;10.392;2023-02-14T00:50:42;102976.22;;;2.40;81.13
61478;BME280;47345;52.334;10.392;2023-02-14T00:53:15;102981.34;;;2.39;80.85
61478;BME280;47345;52.334;10.392;2023-02-14T00:55:48;102984.37;;;2.36;80.84
61478;BME280;47345;52.334;10.392;2023-02-14T00:58:19;102985.45;;;2.33;81.30
61478;BME280;47345;52.334;10.392;2023-02-14T01:00:52;102985.05;;;2.31;81.33
61478;BME280;47345;52.334;10.392;2023-02-14T01:03:24;102985.86;;;2.30;81.67
61478;BME280;47345;52.334;10.392;2023-02-14T01:05:55;102981.51;;;2.27;82.09
61478;BME280;47345;52.334;10.392;2023-02-14T01:08:27;102984.21;;;2.27;82.30
61478;BME280;47345;52.334;10.392;2023-02-14T01:10:59;102987.77;;;2.28;82.50
61478;BME280;47345;52.334;10.392;2023-02-14T01:13:35;102982.03;;;2.28;82.28
61478;BME280;47345;52.334;10.392;2023-02-14T01:19:33;102974.18;;;2.26;82.64
61478;BME280;47345;52.334;10.392;2023-02-14T01:32:17;102975.84;;;2.37;82.89
61478;BME280;47345;52.334;10.392;2023-02-14T01:34:50;102969.45;;;2.42;83.12
61478;BME280;47345;52.334;10.392;2023-02-14T01:37:22;102968.13;;;2.45;83.51
61478;BME280;47345;52.334;10.392;2023-02-14T01:39:53;102964.33;;;2.48;83.72
61478;BME280;47345;52.334;10.392;2023-02-14T01:42:26;102969.08;;;2.56;84.36
61478;BME280;47345;52.334;10.392;2023-02-14T01:45:03;102969.12;;;2.61;84.77
61478;BME280;47345;52.334;10.392;2023-02-14T01:47:42;102970.50;;;2.67;85.03
61478;BME280;47345;52.334;10.392;2023-02-14T01:50:18;102968.22;;;2.72;85.16
61478;BME280;47345;52.334;10.392;2023-02-14T01:52:54;102966.84;;;2.76;84.79
61478;BME280;47345;52.334;10.392;2023-02-14T01:55:30;102970.14;;;2.78;84.59
61478;BME280;47345;52.334;10.392;2023-02-14T01:58:07;102963.99;;;2.78;83.98
61478;BME280;47345;52.334;10.392;2023-02-14T02:00:41;102964.65;;;2.77;83.78
61478;BME280;47345;52.334;10.392;2023-02-14T02:03:46;102960.88;;;2.74;83.99
61478;BME280;47345;52.334;10.392;2023-02-14T02:06:21;102957.61;;;2.72;83.99
61478;BME280;47345;52.334;10.392;2023-02-14T02:08:58;102955.13;;;2.68;84.12
61478;BME280;47345;52.334;10.392;2023-02-14T02:11:31;102951.57;;;2.65;84.14
61478;BME280;47345;52.334;10.392;2023-02-14T02:14:04;102949.31;;;2.61;84.20
61478;BME280;47345;52.334;10.392;2023-02-14T02:16:49;102944.05;;;2.58;83.93
61478;BME280;47345;52.334;10.392;2023-02-14T02:19:53;102943.45;;;2.54;83.85
61478;BME280;47345;52.334;10.392;2023-02-14T02:25:55;102940.57;;;2.45;84.11
61478;BME280;47345;52.334;10.392;2023-02-14T02:28:54;102944.95;;;2.41;84.05
61478;BME280;47345;52.334;10.392;2023-02-14T02:34:58;102939.58;;;2.35;84.38
61478;BME280;47345;52.334;10.392;2023-02-14T02:37:41;102939.52;;;2.33;84.55
61478;BME280;47345;52.334;10.392;2023-02-14T02:40:26;102938.59;;;2.31;84.31
61478;BME280;47345;52.334;10.392;2023-02-14T02:43:06;102934.52;;;2.27;83.86
61478;BME280;47345;52.334;10.392;2023-02-14T02:45:48;102931.10;;;2.24;83.70
61478;BME280;47345;52.334;10.392;2023-02-14T02:48:47;102926.66;;;2.20;83.61
61478;BME280;47345;52.334;10.392;2023-02-14T02:51:29;102927.20;;;2.18;83.28
61478;BME280;47345;52.334;10.392;2023-02-14T02:54:30;102928.70;;;2.14;83.38
61478;BME280;47345;52.334;10.392;2023-02-14T02:57:14;102929.09;;;2.11;83.08
61478;BME280;47345;52.334;10.392;2023-02-14T02:59:50;102925.70;;;2.07;83.14
61478;BME280;47345;52.334;10.392;2023-02-14T03:02:27;102925.38;;;2.04;83.37
61478;BME280;47345;52.334;10.392;2023-02-14T03:05:03;102917.29;;;2.01;83.28
61478;BME280;47345;52.334;10.392;2023-02-14T03:07:37;102918.85;;;1.99;83.27
61478;BME280;47345;52.334;10.392;2023-02-14T03:10:13;102918.28;;;1.96;83.76
61478;BME280;47345;52.334;10.392;2023-02-14T03:13:06;102916.66;;;1.94;83.83
61478;BME280;47345;52.334;10.392;2023-02-14T03:15:56;102913.48;;;1.89;83.65
61478;BME280;47345;52.334;10.392;2023-02-14T03:18:54;102916.16;;;1.87;83.68
61478;BME280;47345;52.334;10.392;2023-02-14T03:21:53;102912.14;;;1.82;83.36
61478;BME280;47345;52.334;10.392;2023-02-14T03:24:35;102908.83;;;1.78;83.70
61478;BME280;47345;52.334;10.392;2023-02-14T03:27:15;102908.52;;;1.76;84.29
61478;BME280;47345;52.334;10.392;2023-02-14T03:29:58;102910.36;;;1.76;84.60
61478;BME280;47345;52.334;10.392;2023-02-14T03:32:40;102906.14;;;1.74;84.22
61478;BME280;47345;52.334;10.392;2023-02-14T03:35:19;102902.85;;;1.73;84.52
61478;BME280;47345;52.334;10.392;2023-02-14T03:37:57;102899.34;;;1.71;84.65
61478;BME280;47345;52.334;10.392;2023-02-14T03:40:34;102893.48;;;1.69;85.05
61478;BME280;47345;52.334;10.392;2023-02-14T03:43:11;102895.14;;;1.69;85.30
61478;BME280;47345;52.334;10.392;2023-02-14T03:45:47;102893.80;;;1.70;85.48
61478;BME280;47345;52.334;10.392;2023-02-14T03:48:23;102888.95;;;1.70;85.61
61478;BME280;47345;52.334;10.392;2023-02-14T03:50:59;102886.61;;;1.70;85.27
61478;BME280;47345;52.334;10.392;2023-02-14T03:53:34;102882.77;;;1.69;85.17
61478;BME280;47345;52.334;10.392;2023-02-14T03:56:11;102882.31;;;1.67;85.16
61478;BME280;47345;52.334;10.392;2023-02-14T03:58:47;102877.89;;;1.63;84.71
61478;BME280;47345;52.334;10.392;2023-02-14T04:01:22;102876.31;;;1.59;84.98
61478;BME280;47345;52.334;10.392;2023-02-14T04:03:56;102879.47;;;1.58;85.32
61478;BME280;47345;52.334;10.392;2023-02-14T04:06:30;102873.91;;;1.58;85.60
61478;BME280;47345;52.334;10.392;2023-02-14T04:09:04;102874.39;;;1.59;85.81
61478;BME280;47345;52.334;10.392;2023-02-14T04:11:36;102870.43;;;1.61;85.95
61478;BME280;47345;52.334;10.392;2023-02-14T04:14:09;102870.02;;;1.62;86.19
61478;BME280;47345;52.334;10.392;2023-02-14T04:16:43;102868.95;;;1.62;86.07
61478;BME280;47345;52.334;10.392;2023-02-14T04:19:32;102872.40;;;1.61;86.43
61478;BME280;47345;52.334;10.392;2023-02-14T04:22:05;102874.23;;;1.61;86.44
61478;BME280;47345;52.334;10.392;2023-02-14T04:24:40;102876.26;;;1.60;86.48
61478;BME280;47345;52.334;10.392;2023-02-14T04:27:13;102872.71;;;1.59;85.99
61478;BME280;47345;52.334;10.392;2023-02-14T04:29:47;102871.52;;;1.55;85.51
61478;BME280;47345;52.334;10.392;2023-02-14T04:32:21;102873.44;;;1.54;85.49
61478;BME280;47345;52.334;10.392;2023-02-14T04:34:56;102872.32;;;1.52;85.65
61478;BME280;47345;52.334;10.392;2023-02-14T04:37:28;102867.77;;;1.50;85.97
61478;BME280;47345;52.334;10.392;2023-02-14T04:40:01;102870.90;;;1.48;86.05
61478;BME280;47345;52.334;10.392;2023-02-14T04:42:33;102864.56;;;1.49;86.19
61478;BME280;47345;52.334;10.392;2023-02-14T04:45:07;102865.16;;;1.48;86.04
61478;BME280;47345;52.334;10.392;2023-02-14T04:47:40;102862.50;;;1.47;86.29
61478;BME280;47345;52.334;10.392;2023-02-14T04:50:13;102859.44;;;1.47;86.51
61478;BME280;47345;52.334;10.392;2023-02-14T04:52:45;102857.63;;;1.47;86.45
61478;BME280;47345;52.334;10.392;2023-02-14T04:55:19;102858.45;;;1.49;86.57
61478;BME280;47345;52.334;10.392;2023-02-14T04:57:52;102858.47;;;1.49;86.64
61478;BME280;47345;52.334;10.392;2023-02-14T05:00:25;102855.23;;;1.48;86.44
61478;BME280;47345;52.334;10.392;2023-02-14T05:02:59;102855.28;;;1.48;86.23
61478;BME280;47345;52.334;10.392;2023-02-14T05:05:33;102854.98;;;1.46;86.32
61478;BME280;47345;52.334;10.392;2023-02-14T05:08:06;102850.35;;;1.46;86.27
61478;BME280;47345;52.334;10.392;2023-02-14T05:10:40;102850.14;;;1.46;86.64
61478;BME280;47345;52.334;10.392;2023-02-14T05:13:12;102850.42;;;1.48;86.44
61478;BME280;47345;52.334;10.392;2023-02-14T05:15:46;102848.56;;;1.49;86.68
61478;BME280;47345;52.334;10.392;2023-02-14T05:18:18;102853.08;;;1.52;87.06
61478;BME280;47345;52.334;10.392;2023-02-14T05:20:52;102855.83;;;1.54;87.14
61478;BME280;47345;52.334;10.392;2023-02-14T05:23:25;102854.77;;;1.56;87.40
61478;BME280;47345;52.334;10.392;2023-02-14T05:25:56;102854.20;;;1.59;87.54
61478;BME280;47345;52.334;10.392;2023-02-14T05:28:28;102851.94;;;1.61;87.63
61478;BME280;47345;52.334;10.392;2023-02-14T05:30:59;102853.64;;;1.62;87.59
61478;BME280;47345;52.334;10.392;2023-02-14T05:33:32;102851.25;;;1.63;87.63
61478;BME280;47345;52.334;10.392;2023-02-14T05:36:05;102846.83;;;1.65;87.78
61478;BME280;47345;52.334;10.392;2023-02-14T05:38:36;102842.90;;;1.67;88.03
61478;BME280;47345;52.334;10.392;2023-02-14T05:41:10;102844.11;;;1.71;88.07
61478;BME280;47345;52.334;10.392;2023-02-14T05:43:43;102852.75;;;1.74;87.89
61478;BME280;47345;52.334;10.392;2023-02-14T05:46:16;102849.25;;;1.78;87.53
61478;BME280;47345;52.334;10.392;2023-02-14T05:48:48;102847.64;;;1.81;87.51
61478;BME280;47345;52.334;10.392;2023-02-14T05:51:20;102847.83;;;1.81;87.50
61478;BME280;47345;52.334;10.392;2023-02-14T05:53:52;102849.30;;;1.83;87.58
61478;BME280;47345;52.334;10.392;2023-02-14T05:56:25;102849.50;;;1.85;87.39
61478;BME280;47345;52.334;10.392;2023-02-14T05:58:58;102847.98;;;1.87;87.38
61478;BME280;47345;52.334;10.392;2023-02-14T06:01:31;102848.48;;;1.87;87.04
61478;BME280;47345;52.334;10.392;2023-02-14T06:04:03;102851.02;;;1.84;87.10
61478;BME280;47345;52.334;10.392;2023-02-14T06:06:35;102853.11;;;1.85;87.92
61478;BME280;47345;52.334;10.392;2023-02-14T06:09:08;102855.06;;;1.83;87.81
61478;BME280;47345;52.334;10.392;2023-02-14T06:11:41;102856.09;;;1.87;88.05
61478;BME280;47345;52.334;10.392;2023-02-14T06:14:14;102852.88;;;1.86;88.22
61478;BME280;47345;52.334;10.392;2023-02-14T06:16:47;102849.86;;;1.85;88.03
61478;BME280;47345;52.334;10.392;2023-02-14T06:19:19;102851.76;;;1.87;88.09
61478;BME280;47345;52.334;10.392;2023-02-14T06:21:51;102849.50;;;1.85;88.16
61478;BME280;47345;52.334;10.392;2023-02-14T06:24:24;102850.91;;;1.86;88.32
61478;BME280;47345;52.334;10.392;2023-02-14T06:27:00;102853.09;;;1.86;88.41
61478;BME280;47345;52.334;10.392;2023-02-14T06:29:33;102856.08;;;1.84;88.15
61478;BME280;47345;52.334;10.392;2023-02-14T06:32:06;102859.41;;;1.82;88.11
61478;BME280;47345;52.334;10.392;2023-02-14T06:34:38;102858.34;;;1.79;88.36
61478;BME280;47345;52.334;10.392;2023-02-14T06:37:11;102868.11;;;1.76;88.16
61478;BME280;47345;52.334;10.392;2023-02-14T06:39:43;102865.72;;;1.73;88.29
61478;BME280;47345;52.334;10.392;2023-02-14T06:42:16;102870.41;;;1.73;88.51
61478;BME280;47345;52.334;10.392;2023-02-14T06:44:50;102869.61;;;1.74;88.90
61478;BME280;47345;52.334;10.392;2023-02-14T06:47:23;102867.84;;;1.74;88.81
61478;BME280;47345;52.334;10.392;2023-02-14T06:49:55;102869.63;;;1.74;88.94
61478;BME280;47345;52.334;10.392;2023-02-14T06:52:29;102870.09;;;1.72;88.69
61478;BME280;47345;52.334;10.392;2023-02-14T06:55:02;102870.63;;;1.73;88.81
61478;BME280;47345;52.334;10.392;2023-02-14T06:57:34;102873.50;;;1.72;88.90
61478;BME280;47345;52.334;10.392;2023-02-14T07:00:07;102867.39;;;1.72;89.03
61478;BME280;47345;52.334;10.392;2023-02-14T07:02:41;102870.36;;;1.71;88.95
61478;BME280;47345;52.334;10.392;2023-02-14T07:05:13;102867.71;;;1.71;88.99
61478;BME280;47345;52.334;10.392;2023-02-14T07:07:48;102871.28;;;1.71;88.97
61478;BME280;47345;52.334;10.392;2023-02-14T07:10:23;102869.39;;;1.73;89.36
61478;BME280;47345;52.334;10.392;2023-02-14T07:12:55;102874.27;;;1.75;89.46
61478;BME280;47345;52.334;10.392;2023-02-14T07:15:29;102875.36;;;1.78;89.64
61478;BME280;47345;52.334;10.392;2023-02-14T07:18:03;102868.58;;;1.80;89.58
61478;BME280;47345;52.334;10.392;2023-02-14T07:20:38;102866.91;;;1.81;89.06
61478;BME280;47345;52.334;10.392;2023-02-14T07:23:11;102869.23;;;1.81;89.24
61478;BME280;47345;52.334;10.392;2023-02-14T07:25:44;102865.73;;;1.82;89.38
61478;BME280;47345;52.334;10.392;2023-02-14T07:28:17;102869.48;;;1.82;89.04
61478;BME280;47345;52.334;10.392;2023-02-14T07:30:48;102870.81;;;1.84;89.45
61478;BME280;47345;52.334;10.392;2023-02-14T07:33:22;102871.85;;;1.85;88.96
61478;BME280;47345;52.334;10.392;2023-02-14T07:35:55;102870.67;;;1.86;88.99
61478;BME280;47345;52.334;10.392;2023-02-14T07:38:28;102869.66;;;1.85;88.88
61478;BME280;47345;52.334;10.392;2023-02-14T07:41:02;102866.85;;;1.84;88.71
61478;BME280;47345;52.334;10.392;2023-02-14T07:43:38;102868.98;;;1.87;89.01
61478;BME280;47345;52.334;10.392;2023-02-14T07:46:12;102869.02;;;1.90;89.13
61478;BME280;47345;52.334;10.392;2023-02-14T07:48:44;102864.36;;;1.90;88.95
61478;BME280;47345;52.334;10.392;2023-02-14T07:51:16;102862.57;;;1.89;88.97
61478;BME280;47345;52.334;10.392;2023-02-14T07:53:49;102863.20;;;1.91;88.67
61478;BME280;47345;52.334;10.392;2023-02-14T07:56:22;102862.34;;;1.90;88.64
61478;BME280;47345;52.334;10.392;2023-02-14T07:58:54;102859.59;;;1.91;88.63
61478;BME280;47345;52.334;10.392;2023-02-14T08:01:26;102860.55;;;1.93;88.73
61478;BME280;47345;52.334;10.392;2023-02-14T08:03:59;102854.63;;;1.96;88.92
61478;BME280;47345;52.334;10.392;2023-02-14T08:06:30;102856.51;;;1.97;88.81
61478;BME280;47345;52.334;10.392;2023-02-14T08:09:02;102857.71;;;2.01;88.74
61478;BME280;47345;52.334;10.392;2023-02-14T08:11:36;102853.61;;;2.03;88.87
61478;BME280;47345;52.334;10.392;2023-02-14T08:14:26;102857.89;;;2.03;88.81
61478;BME280;47345;52.334;10.392;2023-02-14T08:16:59;102854.69;;;2.06;88.75
61478;BME280;47345;52.334;10.392;2023-02-14T08:19:32;102855.51;;;2.07;88.82
61478;BME280;47345;52.334;10.392;2023-02-14T08:22:06;102853.21;;;2.06;88.70
61478;BME280;47345;52.334;10.392;2023-02-14T08:24:38;102853.51;;;2.04;88.53
61478;BME280;47345;52.334;10.392;2023-02-14T08:27:13;102853.44;;;2.03;88.61
61478;BME280;47345;52.334;10.392;2023-02-14T08:29:45;102861.95;;;2.02;88.68
61478;BME280;47345;52.334;10.392;2023-02-14T08:32:18;102858.11;;;2.03;88.85
61478;BME280;47345;52.334;10.392;2023-02-14T08:34:53;102858.30;;;2.06;89.09
61478;BME280;47345;52.334;10.392;2023-02-14T08:37:26;102859.08;;;2.13;89.59
61478;BME280;47345;52.334;10.392;2023-02-14T08:39:57;102860.02;;;2.21;89.82
61478;BME280;47345;52.334;10.392;2023-02-14T08:42:29;102859.27;;;2.27;89.92
61478;BME280;47345;52.334;10.392;2023-02-14T08:45:02;102858.78;;;2.34;89.73
61478;BME280;47345;52.334;10.392;2023-02-14T08:47:35;102856.59;;;2.41;89.68
61478;BME280;47345;52.334;10.392;2023-02-14T08:50:12;102857.30;;;2.46;89.83
61478;BME280;47345;52.334;10.392;2023-02-14T08:52:45;102857.33;;;2.51;89.42
61478;BME280;47345;52.334;10.392;2023-02-14T08:55:17;102857.98;;;2.55;89.40
61478;BME280;47345;52.334;10.392;2023-02-14T08:57:49;102857.64;;;2.60;89.87
61478;BME280;47345;52.334;10.392;2023-02-14T09:00:23;102856.71;;;2.66;89.88
61478;BME280;47345;52.334;10.392;2023-02-14T09:02:56;102857.19;;;2.70;89.80
61478;BME280;47345;52.334;10.392;2023-02-14T09:05:30;102859.44;;;2.74;89.53
61478;BME280;47345;52.334;10.392;2023-02-14T09:08:02;102854.60;;;2.79;89.51
61478;BME280;47345;52.334;10.392;2023-02-14T09:10:35;102850.68;;;2.81;89.25
61478;BME280;47345;52.334;10.392;2023-02-14T09:13:08;102848.85;;;2.81;89.43
61478;BME280;47345;52.334;10.392;2023-02-14T09:15:41;102854.47;;;2.89;89.81
61478;BME280;47345;52.334;10.392;2023-02-14T09:18:15;102854.51;;;2.96;89.83
61478;BME280;47345;52.334;10.392;2023-02-14T09:20:48;102853.95;;;3.02;89.67
61478;BME280;47345;52.334;10.392;2023-02-14T09:23:20;102850.98;;;3.08;89.82
61478;BME280;47345;52.334;10.392;2023-02-14T09:25:58;102848.41;;;3.14;89.75
61478;BME280;47345;52.334;10.392;2023-02-14T09:28:31;102850.60;;;3.16;89.18
61478;BME280;47345;52.334;10.392;2023-02-14T09:31:10;102846.55;;;3.18;89.27
61478;BME280;47345;52.334;10.392;2023-02-14T09:33:45;102847.83;;;3.20;89.41
61478;BME280;47345;52.334;10.392;2023-02-14T09:36:36;102845.97;;;3.23;89.67
61478;BME280;47345;52.334;10.392;2023-02-14T09:39:09;102841.52;;;3.28;90.02
61478;BME280;47345;52.334;10.392;2023-02-14T09:44:39;102840.37;;;3.36;90.01
61478;BME280;47345;52.334;10.392;2023-02-14T09:47:21;102841.35;;;3.41;90.22
61478;BME280;47345;52.334;10.392;2023-02-14T09:49:58;102839.42;;;3.48;90.77
61478;BME280;47345;52.334;10.392;2023-02-14T09:52:31;102838.52;;;3.53;90.86
61478;BME280;47345;52.334;10.392;2023-02-14T09:55:08;102834.55;;;3.58;90.99
61478;BME280;47345;52.334;10.392;2023-02-14T09:58:05;102831.87;;;3.63;90.97
61478;BME280;47345;52.334;10.392;2023-02-14T10:00:44;102831.19;;;3.67;91.25
61478;BME280;47345;52.334;10.392;2023-02-14T10:03:41;102830.77;;;3.71;91.23
61478;BME280;47345;52.334;10.392;2023-02-14T10:06:30;102831.16;;;3.73;91.14
61478;BME280;47345;52.334;10.392;2023-02-14T10:09:13;102835.19;;;3.74;91.42
61478;BME280;47345;52.334;10.392;2023-02-14T10:11:48;102832.56;;;3.76;91.50
61478;BME280;47345;52.334;10.392;2023-02-14T10:14:23;102831.79;;;3.76;91.63
61478;BME280;47345;52.334;10.392;2023-02-14T10:17:00;102833.26;;;3.79;91.69
61478;BME280;47345;52.334;10.392;2023-02-14T10:19:39;102833.31;;;3.80;91.80
61478;BME280;47345;52.334;10.392;2023-02-14T10:22:15;102833.33;;;3.82;92.17
61478;BME280;47345;52.334;10.392;2023-02-14T10:24:50;102835.33;;;3.85;91.89
61478;BME280;47345;52.334;10.392;2023-02-14T10:27:30;102831.88;;;3.88;92.30
61478;BME280;47345;52.334;10.392;2023-02-14T10:30:12;102825.59;;;3.90;92.18
61478;BME280;47345;52.334;10.392;2023-02-14T10:32:49;102823.98;;;3.92;92.36
61478;BME280;47345;52.334;10.392;2023-02-14T10:35:34;102816.23;;;3.94;92.43
61478;BME280;47345;52.334;10.392;2023-02-14T10:38:17;102816.23;;;3.97;92.30
61478;BME280;47345;52.334;10.392;2023-02-14T10:44:10;102812.21;;;4.03;92.44
61478;BME280;47345;52.334;10.392;2023-02-14T10:46:51;102807.19;;;4.05;92.42
61478;BME280;47345;52.334;10.392;2023-02-14T10:49:36;102809.27;;;4.08;92.65
61478;BME280;47345;52.334;10.392;2023-02-14T10:52:20;102808.97;;;4.12;92.61
61478;BME280;47345;52.334;10.392;2023-02-14T10:54:57;102810.04;;;4.15;92.63
61478;BME280;47345;52.334;10.392;2023-02-14T10:57:33;102811.45;;;4.21;92.90
61478;BME280;47345;52.334;10.392;2023-02-14T11:00:15;102808.97;;;4.25;92.93
61478;BME280;47345;52.334;10.392;2023-02-14T11:02:52;102806.55;;;4.28;92.67
61478;BME280;47345;52.334;10.392;2023-02-14T11:05:34;102802.55;;;4.31;92.72
61478;BME280;47345;52.334;10.392;2023-02-14T11:08:16;102803.20;;;4.34;92.72
61478;BME280;47345;52.334;10.392;2023-02-14T11:10:50;102799.60;;;4.37;92.95
61478;BME280;47345;52.334;10.392;2023-02-14T11:13:37;102798.27;;;4.40;92.89
61478;BME280;47345;52.334;10.392;2023-02-14T11:16:11;102793.33;;;4.45;92.95
61478;BME280;47345;52.334;10.392;2023-02-14T11:19:13;102795.23;;;4.49;92.91
61478;BME280;47345;52.334;10.392;2023-02-14T11:21:52;102792.31;;;4.54;92.93
61478;BME280;47345;52.334;10.392;2023-02-14T11:24:32;102790.56;;;4.58;92.69
61478;BME280;47345;52.334;10.392;2023-02-14T11:27:13;102787.54;;;4.63;92.83
61478;BME280;47345;52.334;10.392;2023-02-14T11:29:49;102787.77;;;4.66;92.54
61478;BME280;47345;52.334;10.392;2023-02-14T11:32:25;102780.84;;;4.70;92.46
61478;BME280;47345;52.334;10.392;2023-02-14T11:35:02;102776.00;;;4.74;92.85
61478;BME280;47345;52.334;10.392;2023-02-14T11:37:41;102775.05;;;4.79;92.73
61478;BME280;47345;52.334;10.392;2023-02-14T11:40:28;102773.38;;;4.84;92.75
61478;BME280;47345;52.334;10.392;2023-02-14T11:43:17;102768.59;;;4.90;92.69
61478;BME280;47345;52.334;10.392;2023-02-14T11:46:06;102761.34;;;4.95;92.54
61478;BME280;47345;52.334;10.392;2023-02-14T11:48:55;102762.14;;;5.01;92.61
61478;BME280;47345;52.334;10.392;2023-02-14T11:51:31;102758.23;;;5.05;92.46
61478;BME280;47345;52.334;10.392;2023-02-14T11:54:06;102760.48;;;5.11;92.60
61478;BME280;47345;52.334;10.392;2023-02-14T11:56:48;102753.73;;;5.16;92.47
61478;BME280;47345;52.334;10.392;2023-02-14T11:59:36;102751.67;;;5.22;92.66
61478;BME280;47345;52.334;10.392;2023-02-14T12:02:26;102748.37;;;5.27;92.47
61478;BME280;47345;52.334;10.392;2023-02-14T12:05:02;102746.11;;;5.30;92.04
61478;BME280;47345;52.334;10.392;2023-02-14T12:07:37;102737.76;;;5.31;91.89
61478;BME280;47345;52.334;10.392;2023-02-14T12:10:28;102738.48;;;5.35;91.94
61478;BME280;47345;52.334;10.392;2023-02-14T12:13:19;102736.30;;;5.38;91.62
61478;BME280;47345;52.334;10.392;2023-02-14T12:15:56;102731.33;;;5.41;91.63
61478;BME280;47345;52.334;10.392;2023-02-14T12:18:44;102727.73;;;5.43;91.55
61478;BME280;47345;52.334;10.392;2023-02-14T12:21:42;102722.66;;;5.45;91.44
61478;BME280;47345;52.334;10.392;2023-02-14T12:24:25;102722.55;;;5.49;91.50
61478;BME280;47345;52.334;10.392;2023-02-14T12:27:09;102721.45;;;5.54;91.25
61478;BME280;47345;52.334;10.392;2023-02-14T12:29:52;102720.96;;;5.57;91.02
61478;BME280;47345;52.334;10.392;2023-02-14T12:32:28;102713.17;;;5.62;91.09
61478;BME280;47345;52.334;10.392;2023-02-14T12:35:12;102711.32;;;5.67;91.08
61478;BME280;47345;52.334;10.392;2023-02-14T12:37:54;102706.64;;;5.71;90.91
61478;BME280;47345;52.334;10.392;2023-02-14T12:40:41;102702.85;;;5.75;90.80
61478;BME280;47345;52.334;10.392;2023-02-14T12:43:29;102697.17;;;5.78;90.75
61478;BME280;47345;52.334;10.392;2023-02-14T12:46:16;102691.08;;;5.82;90.84
61478;BME280;47345;52.334;10.392;2023-02-14T12:51:57;102680.04;;;5.95;90.60
61478;BME280;47345;52.334;10.392;2023-02-14T12:54:52;102675.83;;;5.98;90.40
61478;BME280;47345;52.334;10.392;2023-02-14T12:57:36;102669.14;;;6.00;90.35
61478;BME280;47345;52.334;10.392;2023-02-14T13:00:31;102661.38;;;6.02;90.22
61478;BME280;47345;52.334;10.392;2023-02-14T13:03:28;102658.71;;;6.03;90.16
61478;BME280;47345;52.334;10.392;2023-02-14T13:06:11;102653.05;;;6.04;90.09
61478;BME280;47345;52.334;10.392;2023-02-14T13:09:00;102650.95;;;6.07;90.19
61478;BME280;47345;52.334;10.392;2023-02-14T13:11:42;102647.26;;;6.13;90.52
61478;BME280;47345;52.334;10.392;2023-02-14T13:14:40;102643.89;;;6.18;90.38
61478;BME280;47345;52.334;10.392;2023-02-14T13:17:25;102641.73;;;6.27;90.27
61478;BME280;47345;52.334;10.392;2023-02-14T13:20:21;102640.70;;;6.32;90.10
61478;BME280;47345;52.334;10.392;2023-02-14T13:23:03;102642.45;;;6.35;89.70
61478;BME280;47345;52.334;10.392;2023-02-14T13:25:41;102638.41;;;6.38;89.91
61478;BME280;47345;52.334;10.392;2023-02-14T13:28:20;102633.20;;;6.41;89.94
61478;BME280;47345;52.334;10.392;2023-02-14T13:30:56;102639.03;;;6.49;90.14
61478;BME280;47345;52.334;10.392;2023-02-14T13:33:34;102631.20;;;6.59;89.64
61478;BME280;47345;52.334;10.392;2023-02-14T13:36:11;102632.09;;;6.65;89.20
61478;BME280;47345;52.334;10.392;2023-02-14T13:38:47;102625.98;;;6.68;88.99
61478;BME280;47345;52.334;10.392;2023-02-14T13:41:21;102624.15;;;6.73;88.74
61478;BME280;47345;52.334;10.392;2023-02-14T13:43:56;102624.38;;;6.74;88.37
61478;BME280;47345;52.334;10.392;2023-02-14T13:46:51;102623.62;;;6.77;88.39
61478;BME280;47345;52.334;10.392;2023-02-14T13:49:30;102626.34;;;6.77;88.23
61478;BME280;47345;52.334;10.392;2023-02-14T13:52:08;102626.41;;;6.78;87.96
61478;BME280;47345;52.334;10.392;2023-02-14T13:54:45;102622.20;;;6.81;88.14
61478;BME280;47345;52.334;10.392;2023-02-14T13:57:33;102623.62;;;6.83;88.23
61478;BME280;47345;52.334;10.392;2023-02-14T14:00:30;102622.30;;;6.90;88.43
61478;BME280;47345;52.334;10.392;2023-02-14T14:03:10;102620.83;;;6.96;88.32
61478;BME280;47345;52.334;10.392;2023-02-14T14:05:59;102620.55;;;6.99;88.35
61478;BME280;47345;52.334;10.392;2023-02-14T14:08:49;102615.03;;;7.00;88.31
61478;BME280;47345;52.334;10.392;2023-02-14T14:14:33;102605.54;;;7.05;88.64
61478;BME280;47345;52.334;10.392;2023-02-14T14:17:26;102604.29;;;7.07;88.43